createdAt,value
2018-08-28T00:01:16.582Z,8.43
2018-08-28T00:03:44.796Z,8.30
2018-08-28T00:06:12.891Z,6.63
2018-08-28T00:08:41.012Z,8.80
2018-08-28T00:11:09.074Z,7.73
2018-08-28T00:13:37.214Z,8.03
2018-08-28T00:16:05.319Z,8.87
2018-08-28T00:18:33.491Z,8.77
2018-08-28T00:21:01.678Z,10.10
2018-08-28T00:23:29.808Z,9.27
2018-08-28T00:25:57.907Z,7.07
2018-08-28T00:28:26.056Z,7.50
2018-08-28T00:30:54.087Z,7.77
2018-08-28T00:33:22.190Z,8.83
2018-08-28T00:35:50.279Z,12.17
2018-08-28T00:38:18.321Z,10.87
2018-08-28T00:40:46.438Z,11.47
2018-08-28T00:43:14.742Z,10.67
2018-08-28T00:45:43.021Z,7.83
2018-08-28T00:48:11.229Z,9.27
2018-08-28T00:50:39.767Z,10.03
2018-08-28T00:53:07.860Z,8.33
2018-08-28T00:55:36.122Z,8.00
2018-08-28T00:58:04.507Z,11.00
2018-08-28T01:00:32.512Z,9.40
2018-08-28T01:03:00.961Z,11.07
2018-08-28T01:05:29.103Z,9.40
2018-08-28T01:07:57.140Z,9.00
2018-08-28T01:10:25.341Z,9.30
2018-08-28T01:12:53.451Z,10.40
2018-08-28T01:15:21.685Z,10.23
2018-08-28T01:17:49.830Z,7.40
2018-08-28T01:20:17.995Z,9.67
2018-08-28T01:22:46.082Z,9.43
2018-08-28T01:25:14.236Z,15.70
2018-08-28T01:27:42.352Z,13.60
2018-08-28T01:30:10.757Z,9.40
2018-08-28T01:32:38.842Z,10.07
2018-08-28T01:35:07.008Z,14.57
2018-08-28T01:37:35.211Z,12.03
2018-08-28T01:40:03.299Z,10.67
2018-08-28T01:42:31.402Z,10.50
2018-08-28T01:44:59.625Z,12.73
2018-08-28T01:47:27.836Z,8.60
2018-08-28T01:49:55.927Z,14.00
2018-08-28T01:52:24.024Z,10.67
2018-08-28T01:54:52.132Z,10.43
2018-08-28T01:57:20.266Z,11.03
2018-08-28T01:59:48.251Z,10.20
2018-08-28T02:02:16.267Z,10.67
2018-08-28T02:04:44.452Z,11.23
2018-08-28T02:07:12.559Z,9.70
2018-08-28T02:09:40.742Z,15.10
2018-08-28T02:12:08.900Z,10.17
2018-08-28T02:14:37.028Z,10.60
2018-08-28T02:17:05.268Z,12.47
2018-08-28T02:19:33.348Z,11.03
2018-08-28T02:22:01.504Z,12.80
2018-08-28T02:24:29.622Z,11.97
2018-08-28T02:26:57.913Z,9.73
2018-08-28T02:29:26.136Z,9.17
2018-08-28T02:31:54.264Z,10.50
2018-08-28T02:34:22.514Z,10.50
2018-08-28T02:36:50.859Z,9.50
2018-08-28T02:39:19.167Z,8.87
2018-08-28T02:41:47.475Z,9.07
2018-08-28T02:44:15.629Z,8.83
2018-08-28T02:46:43.752Z,12.30
2018-08-28T02:49:11.918Z,10.33
2018-08-28T02:51:40.042Z,8.20
2018-08-28T02:54:08.146Z,10.20
2018-08-28T02:56:36.365Z,10.30
2018-08-28T02:59:04.636Z,9.43
2018-08-28T03:01:32.755Z,11.07
2018-08-28T03:04:00.748Z,10.47
2018-08-28T03:06:28.748Z,10.53
2018-08-28T03:08:56.730Z,14.97
2018-08-28T03:11:24.803Z,10.73
2018-08-28T03:13:52.937Z,10.30
2018-08-28T03:16:20.984Z,13.30
2018-08-28T03:18:49.084Z,11.40
2018-08-28T03:21:17.244Z,10.27
2018-08-28T03:23:45.324Z,13.47
2018-08-28T03:26:13.446Z,13.77
2018-08-28T03:28:41.481Z,11.80
2018-08-28T03:31:09.473Z,10.17
2018-08-28T03:33:37.507Z,9.93
2018-08-28T03:36:05.663Z,9.67
2018-08-28T03:38:33.663Z,11.90
2018-08-28T03:41:01.844Z,13.87
2018-08-28T03:43:29.925Z,10.80
2018-08-28T03:45:57.900Z,11.13
2018-08-28T03:48:25.983Z,11.50
2018-08-28T03:50:54.069Z,9.57
2018-08-28T03:53:22.329Z,11.53
2018-08-28T03:55:50.504Z,14.07
2018-08-28T03:58:18.629Z,10.77
2018-08-28T04:00:46.761Z,9.50
2018-08-28T04:03:14.880Z,8.80
2018-08-28T04:05:43.309Z,12.57
2018-08-28T04:08:11.514Z,14.03
2018-08-28T04:10:39.810Z,9.63
2018-08-28T04:13:08.152Z,12.23
2018-08-28T04:15:36.332Z,10.70
2018-08-28T04:18:04.422Z,11.70
2018-08-28T04:20:32.668Z,11.03
2018-08-28T04:23:01.675Z,11.10
2018-08-28T04:25:30.417Z,13.30
2018-08-28T04:27:58.821Z,10.93
2018-08-28T04:30:27.445Z,11.33
2018-08-28T04:32:55.905Z,10.43
2018-08-28T04:35:24.430Z,11.60
2018-08-28T04:37:52.944Z,13.03
2018-08-28T04:40:21.321Z,12.20
2018-08-28T04:42:49.896Z,13.97
2018-08-28T04:45:18.255Z,10.60
2018-08-28T04:47:46.615Z,12.43
2018-08-28T04:50:15.019Z,13.47
2018-08-28T04:52:43.389Z,11.03
2018-08-28T04:55:11.787Z,11.57
2018-08-28T04:57:40.467Z,10.47
2018-08-28T05:00:09.004Z,9.67
2018-08-28T05:02:37.921Z,9.73
2018-08-28T05:05:08.706Z,11.80
2018-08-28T05:07:37.081Z,9.93
2018-08-28T05:10:06.148Z,10.47
2018-08-28T05:12:34.610Z,12.03
2018-08-28T05:15:03.076Z,10.40
2018-08-28T05:17:31.418Z,10.07
2018-08-28T05:19:59.913Z,11.40
2018-08-28T05:22:28.357Z,8.33
2018-08-28T05:24:56.934Z,9.27
2018-08-28T05:27:25.346Z,11.17
2018-08-28T05:29:53.796Z,9.23
2018-08-28T05:32:22.095Z,8.63
2018-08-28T05:34:50.788Z,8.27
2018-08-28T05:37:19.290Z,9.97
2018-08-28T05:39:47.549Z,9.53
2018-08-28T05:42:15.883Z,9.30
2018-08-28T05:44:44.529Z,8.23
2018-08-28T05:47:13.065Z,9.53
2018-08-28T05:49:41.592Z,8.47
2018-08-28T05:52:10.679Z,7.40
2018-08-28T05:57:08.946Z,8.07
2018-08-28T05:59:37.251Z,8.10
2018-08-28T06:02:07.267Z,10.10
2018-08-28T06:04:35.956Z,6.97
2018-08-28T06:07:04.524Z,8.00
2018-08-28T06:09:32.934Z,7.37
2018-08-28T06:12:01.325Z,7.63
2018-08-28T06:14:29.407Z,7.80
2018-08-28T06:16:58.276Z,8.23
2018-08-28T06:19:26.685Z,7.17
2018-08-28T06:21:54.964Z,7.40
2018-08-28T06:24:23.244Z,7.80
2018-08-28T06:26:51.959Z,7.50
2018-08-28T06:29:20.619Z,7.17
2018-08-28T06:31:49.254Z,7.10
2018-08-28T06:34:17.430Z,6.67
2018-08-28T06:36:45.701Z,7.20
2018-08-28T06:39:13.898Z,7.67
2018-08-28T06:41:41.956Z,12.10
2018-08-28T06:44:10.265Z,7.87
2018-08-28T06:46:38.485Z,6.70
2018-08-28T06:49:06.562Z,6.73
2018-08-28T06:51:34.735Z,5.83
2018-08-28T06:54:02.787Z,7.40
2018-08-28T06:56:30.850Z,6.57
2018-08-28T06:58:59.136Z,6.77
2018-08-28T07:01:27.201Z,6.53
2018-08-28T07:03:55.321Z,7.23
2018-08-28T07:06:23.514Z,6.23
2018-08-28T07:08:51.679Z,6.93
2018-08-28T07:11:19.855Z,8.83
2018-08-28T07:13:47.996Z,8.33
2018-08-28T07:16:16.144Z,7.03
2018-08-28T07:18:44.641Z,7.10
2018-08-28T07:21:13.331Z,7.67
2018-08-28T07:23:41.861Z,7.20
2018-08-28T07:26:10.361Z,5.70
2018-08-28T07:28:38.591Z,6.63
2018-08-28T07:31:06.757Z,6.63
2018-08-28T07:33:35.064Z,6.13
2018-08-28T07:36:03.153Z,6.10
2018-08-28T07:38:31.376Z,7.63
2018-08-28T07:40:59.593Z,6.07
2018-08-28T07:43:27.882Z,6.57
2018-08-28T07:45:56.006Z,5.80
2018-08-28T07:48:24.228Z,5.93
2018-08-28T07:50:52.599Z,6.73
2018-08-28T07:53:20.637Z,5.53
2018-08-28T07:55:48.874Z,6.63
2018-08-28T07:58:17.045Z,7.10
2018-08-28T08:00:45.395Z,5.57
2018-08-28T08:03:13.701Z,7.63
2018-08-28T08:05:42.257Z,6.00
2018-08-28T08:08:10.373Z,6.50
2018-08-28T08:10:38.676Z,5.93
2018-08-28T08:13:06.979Z,6.27
2018-08-28T08:15:35.361Z,5.03
2018-08-28T08:18:03.545Z,5.27
2018-08-28T08:20:31.850Z,5.77
2018-08-28T08:23:00.001Z,6.47
2018-08-28T08:25:28.385Z,6.40
2018-08-28T08:27:56.686Z,6.57
2018-08-28T08:30:24.802Z,6.17
2018-08-28T08:32:53.128Z,6.40
2018-08-28T08:35:21.469Z,5.30
2018-08-28T08:37:49.806Z,5.23
2018-08-28T08:40:17.997Z,5.93
2018-08-28T08:42:46.159Z,7.53
2018-08-28T08:45:14.358Z,5.73
2018-08-28T08:47:42.474Z,5.23
2018-08-28T08:50:10.626Z,5.43
2018-08-28T08:52:38.951Z,9.50
2018-08-28T08:55:07.258Z,5.77
2018-08-28T08:57:35.495Z,5.20
2018-08-28T09:00:03.818Z,5.73
2018-08-28T09:02:31.974Z,5.80
2018-08-28T09:05:00.253Z,6.30
2018-08-28T09:07:28.431Z,7.97
2018-08-28T09:09:56.578Z,8.70
2018-08-28T09:12:25.195Z,5.63
2018-08-28T09:14:53.559Z,8.33
2018-08-28T09:17:22.074Z,6.43
2018-08-28T09:19:50.469Z,5.83
2018-08-28T09:22:18.850Z,6.93
2018-08-28T09:24:47.174Z,6.97
2018-08-28T09:27:15.435Z,9.53
2018-08-28T09:29:44.186Z,9.23
2018-08-28T09:32:12.434Z,10.73
2018-08-28T09:34:40.693Z,12.03
2018-08-28T09:37:09.408Z,10.13
2018-08-28T09:39:37.599Z,9.23
2018-08-28T09:42:05.680Z,8.37
2018-08-28T09:44:33.924Z,7.40
2018-08-28T09:47:02.035Z,10.37
2018-08-28T09:49:30.647Z,8.33
2018-08-28T09:51:59.042Z,8.13
2018-08-28T09:54:27.116Z,9.07
2018-08-28T09:56:55.620Z,7.83
2018-08-28T09:59:24.015Z,8.27
2018-08-28T10:01:52.526Z,8.87
2018-08-28T10:04:21.030Z,8.80
2018-08-28T10:06:49.684Z,7.97
2018-08-28T10:09:18.674Z,9.23
2018-08-28T10:11:47.405Z,8.30
2018-08-28T10:14:15.774Z,9.80
2018-08-28T10:16:44.606Z,8.30
2018-08-28T10:19:13.294Z,9.50
2018-08-28T10:21:41.735Z,7.93
2018-08-28T10:24:10.128Z,8.13
2018-08-28T10:26:38.708Z,7.10
2018-08-28T10:29:07.087Z,7.10
2018-08-28T10:31:35.452Z,9.57
2018-08-28T10:34:03.890Z,7.50
2018-08-28T10:36:32.172Z,10.47
2018-08-28T10:39:00.422Z,7.63
2018-08-28T10:41:28.714Z,9.33
2018-08-28T10:43:57.400Z,8.90
2018-08-28T10:46:25.876Z,11.03
2018-08-28T10:48:54.121Z,9.73
2018-08-28T10:51:22.573Z,7.20
2018-08-28T10:53:51.070Z,10.00
2018-08-28T10:56:19.438Z,8.17
2018-08-28T10:58:47.880Z,10.20
2018-08-28T11:01:16.167Z,8.13
2018-08-28T11:03:44.641Z,7.43
2018-08-28T11:06:12.879Z,10.77
2018-08-28T11:08:41.324Z,10.97
2018-08-28T11:11:09.687Z,7.93
2018-08-28T11:13:38.232Z,10.23
2018-08-28T11:16:06.681Z,8.00
2018-08-28T11:18:35.263Z,9.20
2018-08-28T11:21:03.643Z,6.70
2018-08-28T11:23:32.055Z,9.10
2018-08-28T11:26:00.619Z,8.60
2018-08-28T11:28:28.945Z,6.87
2018-08-28T11:30:57.502Z,7.83
2018-08-28T11:33:25.921Z,7.40
2018-08-28T11:35:54.206Z,6.50
2018-08-28T11:38:22.642Z,6.33
2018-08-28T11:40:51.029Z,8.67
2018-08-28T11:43:19.501Z,6.87
2018-08-28T11:45:47.897Z,8.13
2018-08-28T11:48:16.405Z,7.93
2018-08-28T11:50:44.905Z,9.53
2018-08-28T11:53:13.432Z,8.43
2018-08-28T11:55:41.781Z,11.17
2018-08-28T11:58:10.216Z,7.07
2018-08-28T12:00:38.725Z,11.37
2018-08-28T12:03:07.383Z,8.13
2018-08-28T12:05:35.699Z,8.87
2018-08-28T12:08:04.262Z,7.63
2018-08-28T12:10:32.666Z,7.70
2018-08-28T12:13:01.333Z,8.10
2018-08-28T12:15:30.681Z,7.20
2018-08-28T12:17:59.176Z,6.13
2018-08-28T12:20:28.395Z,6.37
2018-08-28T12:22:57.067Z,6.22
2018-08-28T12:25:25.572Z,7.03
2018-08-28T12:27:53.940Z,5.87
2018-08-28T12:30:22.449Z,8.20
2018-08-28T12:32:51.036Z,7.30
2018-08-28T12:35:19.435Z,9.00
2018-08-28T12:37:47.787Z,8.73
2018-08-28T12:40:16.130Z,9.33
2018-08-28T12:42:44.518Z,6.83
2018-08-28T12:45:12.893Z,9.30
2018-08-28T12:47:41.478Z,7.97
2018-08-28T12:50:10.899Z,6.60
2018-08-28T12:52:39.275Z,6.50
2018-08-28T12:55:08.006Z,5.90
2018-08-28T12:57:36.525Z,6.90
2018-08-28T13:00:05.312Z,6.20
2018-08-28T13:02:33.795Z,6.17
2018-08-28T13:05:02.260Z,5.37
2018-08-28T13:07:30.764Z,7.43
2018-08-28T13:09:59.497Z,6.73
2018-08-28T13:12:28.056Z,6.27
2018-08-28T13:14:56.398Z,9.23
2018-08-28T13:17:24.843Z,7.20
2018-08-28T13:19:53.270Z,6.93
2018-08-28T13:22:21.769Z,5.70
2018-08-28T13:24:50.393Z,7.17
2018-08-28T13:27:18.806Z,7.77
2018-08-28T13:29:47.329Z,5.90
2018-08-28T13:32:15.781Z,8.20
2018-08-28T13:34:44.248Z,7.67
2018-08-28T13:37:12.577Z,6.87
2018-08-28T13:39:41.269Z,8.00
2018-08-28T13:42:09.836Z,7.60
2018-08-28T13:44:38.282Z,8.10
2018-08-28T13:47:06.720Z,6.93
2018-08-28T13:49:35.156Z,6.83
2018-08-28T13:52:03.795Z,7.20
2018-08-28T13:54:32.411Z,8.47
2018-08-28T13:57:00.799Z,6.80
2018-08-28T13:59:29.206Z,6.50
2018-08-28T14:01:57.486Z,9.57
2018-08-28T14:04:25.849Z,5.90
2018-08-28T14:06:54.570Z,9.87
2018-08-28T14:09:23.159Z,7.23
2018-08-28T14:11:51.409Z,7.33
2018-08-28T14:14:19.924Z,6.97
2018-08-28T14:16:48.167Z,9.90
2018-08-28T14:19:16.444Z,9.70
2018-08-28T14:21:44.498Z,8.10
2018-08-28T14:24:12.675Z,7.47
2018-08-28T14:26:41.121Z,12.57
2018-08-28T14:29:09.289Z,7.30
2018-08-28T14:31:37.446Z,8.23
2018-08-28T14:34:05.541Z,6.90
2018-08-28T14:36:33.578Z,5.80
2018-08-28T14:39:02.112Z,6.87
2018-08-28T14:41:30.232Z,8.00
2018-08-28T14:43:58.506Z,6.53
2018-08-28T14:46:26.747Z,9.43
2018-08-28T14:48:55.149Z,6.60
2018-08-28T14:51:23.348Z,6.67
2018-08-28T14:53:51.538Z,7.47
2018-08-28T14:56:19.788Z,8.00
2018-08-28T14:58:47.947Z,7.43
2018-08-28T15:01:16.059Z,12.10
2018-08-28T15:03:44.234Z,12.07
2018-08-28T15:06:13.039Z,9.33
2018-08-28T15:08:41.354Z,8.27
2018-08-28T15:11:09.675Z,9.10
2018-08-28T15:13:38.090Z,8.33
2018-08-28T15:16:06.333Z,8.70
2018-08-28T15:18:34.727Z,7.57
2018-08-28T15:21:02.988Z,6.67
2018-08-28T15:23:31.608Z,7.63
2018-08-28T15:25:59.847Z,7.80
2018-08-28T15:28:28.258Z,10.27
2018-08-28T15:30:56.853Z,7.40
2018-08-28T15:33:25.369Z,6.13
2018-08-28T15:35:53.949Z,8.73
2018-08-28T15:38:22.089Z,6.80
2018-08-28T15:40:50.431Z,6.07
2018-08-28T15:43:18.755Z,9.97
2018-08-28T15:45:47.323Z,8.60
2018-08-28T15:48:15.613Z,9.17
2018-08-28T15:50:43.844Z,7.50
2018-08-28T15:53:12.060Z,7.97
2018-08-28T15:55:40.526Z,7.97
2018-08-28T15:58:08.851Z,10.43
2018-08-28T16:00:37.079Z,9.80
2018-08-28T16:03:05.431Z,7.73
2018-08-28T16:05:33.783Z,9.17
2018-08-28T16:08:02.072Z,12.97
2018-08-28T16:10:30.312Z,10.20
2018-08-28T16:12:58.599Z,9.67
2018-08-28T16:15:26.960Z,11.83
2018-08-28T16:17:55.117Z,11.40
2018-08-28T16:20:23.274Z,9.47
2018-08-28T16:22:54.967Z,11.57
2018-08-28T16:25:23.157Z,9.37
2018-08-28T16:27:51.362Z,14.30
2018-08-28T16:30:19.724Z,9.90
2018-08-28T16:32:48.130Z,10.00
2018-08-28T16:35:16.621Z,10.63
2018-08-28T16:37:45.125Z,13.17
2018-08-28T16:40:13.442Z,13.30
2018-08-28T16:42:41.783Z,11.07
2018-08-28T16:45:10.450Z,11.30
2018-08-28T16:47:38.886Z,9.67
2018-08-28T16:50:07.181Z,12.93
2018-08-28T16:52:35.415Z,14.03
2018-08-28T16:55:03.568Z,12.90
2018-08-28T16:57:32.090Z,16.80
2018-08-28T17:00:00.463Z,16.57
2018-08-28T17:02:28.796Z,11.60
2018-08-28T17:04:56.928Z,13.93
2018-08-28T17:07:25.077Z,14.10
2018-08-28T17:09:53.237Z,16.43
2018-08-28T17:12:21.626Z,20.23
2018-08-28T17:14:49.806Z,14.43
2018-08-28T17:17:18.244Z,17.43
2018-08-28T17:19:46.524Z,13.30
2018-08-28T17:22:14.747Z,16.67
2018-08-28T17:24:42.949Z,17.30
2018-08-28T17:27:11.113Z,16.93
2018-08-28T17:29:39.633Z,15.80
2018-08-28T17:32:07.961Z,18.07
2018-08-28T17:34:36.241Z,20.30
2018-08-28T17:37:04.571Z,22.03
2018-08-28T17:39:33.048Z,17.37
2018-08-28T17:42:01.250Z,15.27
2018-08-28T17:44:29.377Z,14.30
2018-08-28T17:46:57.726Z,25.77
2018-08-28T17:49:25.966Z,15.90
2018-08-28T17:51:54.429Z,14.47
2018-08-28T17:54:22.682Z,25.03
2018-08-28T17:56:50.955Z,19.13
2018-08-28T17:59:19.119Z,21.60
2018-08-28T18:01:47.571Z,31.10
2018-08-28T18:04:15.867Z,21.70
2018-08-28T18:06:44.052Z,17.87
2018-08-28T18:09:12.758Z,16.37
2018-08-28T18:11:41.687Z,14.97
2018-08-28T18:14:09.937Z,17.30
2018-08-28T18:16:39.490Z,16.40
2018-08-28T18:19:07.815Z,17.63
2018-08-28T18:21:36.142Z,13.90
2018-08-28T18:24:04.380Z,16.40
2018-08-28T18:26:32.707Z,18.50
2018-08-28T18:29:01.530Z,19.33
2018-08-28T18:31:29.966Z,15.83
2018-08-28T18:33:58.432Z,14.03
2018-08-28T18:36:26.826Z,17.80
2018-08-28T18:38:55.153Z,15.10
2018-08-28T18:41:23.520Z,22.47
2018-08-28T18:43:51.546Z,17.07
2018-08-28T18:46:19.952Z,15.07
2018-08-28T18:48:48.328Z,14.57
2018-08-28T18:51:16.787Z,12.70
2018-08-28T18:53:45.025Z,17.30
2018-08-28T18:56:13.438Z,14.23
2018-08-28T18:58:41.501Z,15.70
2018-08-28T19:01:09.883Z,18.00
2018-08-28T19:03:38.157Z,17.13
2018-08-28T19:06:06.512Z,14.90
2018-08-28T19:08:34.919Z,15.03
2018-08-28T19:11:03.165Z,19.57
2018-08-28T19:13:31.556Z,18.47
2018-08-28T19:16:00.039Z,15.70
2018-08-28T19:18:28.209Z,16.97
2018-08-28T19:20:56.928Z,18.87
2018-08-28T19:23:25.212Z,16.63
2018-08-28T19:25:53.591Z,25.40
2018-08-28T19:28:21.929Z,19.90
2018-08-28T19:30:50.213Z,15.53
2018-08-28T19:33:18.361Z,14.40
2018-08-28T19:35:46.820Z,16.33
2018-08-28T19:38:15.401Z,16.93
2018-08-28T19:40:43.712Z,17.00
2018-08-28T19:43:11.990Z,15.37
2018-08-28T19:45:40.478Z,14.83
2018-08-28T19:48:08.723Z,14.57
2018-08-28T19:50:37.210Z,16.13
2018-08-28T19:53:05.520Z,15.53
2018-08-28T19:55:33.821Z,18.57
2018-08-28T19:58:02.025Z,16.03
2018-08-28T20:00:30.257Z,15.17
2018-08-28T20:02:58.490Z,16.37
2018-08-28T20:05:26.678Z,15.83
2018-08-28T20:07:55.130Z,17.93
2018-08-28T20:10:23.391Z,17.33
2018-08-28T20:12:51.538Z,16.83
2018-08-28T20:15:19.725Z,14.80
2018-08-28T20:17:47.952Z,15.47
2018-08-28T20:20:16.433Z,17.87
2018-08-28T20:22:44.627Z,16.10
2018-08-28T20:25:12.872Z,19.43
2018-08-28T20:27:41.128Z,19.43
2018-08-28T20:30:09.486Z,19.53
2018-08-28T20:32:37.836Z,18.20
2018-08-28T20:35:06.445Z,14.70
2018-08-28T20:37:34.802Z,17.10
2018-08-28T20:40:02.973Z,17.77
2018-08-28T20:42:31.118Z,16.20
2018-08-28T20:44:59.257Z,17.80
2018-08-28T20:47:27.483Z,20.37
2018-08-28T20:49:55.782Z,17.83
2018-08-28T20:52:23.942Z,17.47
2018-08-28T20:54:52.112Z,17.77
2018-08-28T20:57:20.263Z,17.17
2018-08-28T20:59:48.508Z,16.43
2018-08-28T21:02:16.867Z,19.83
2018-08-28T21:04:44.990Z,19.70
2018-08-28T21:07:13.147Z,18.63
2018-08-28T21:09:41.500Z,15.83
2018-08-28T21:12:09.820Z,18.60
2018-08-28T21:14:38.257Z,14.53
2018-08-28T21:17:06.635Z,23.17
2018-08-28T21:19:34.941Z,17.43
2018-08-28T21:22:03.131Z,17.73
2018-08-28T21:24:31.347Z,18.37
2018-08-28T21:26:59.573Z,16.27
2018-08-28T21:29:27.769Z,18.00
2018-08-28T21:31:55.982Z,16.50
2018-08-28T21:34:24.176Z,18.30
2018-08-28T21:36:52.427Z,15.13
2018-08-28T21:39:20.623Z,18.37
2018-08-28T21:41:49.036Z,22.67
2018-08-28T21:44:17.162Z,15.80
2018-08-28T21:46:45.424Z,16.83
2018-08-28T21:49:13.513Z,17.43
2018-08-28T21:51:41.642Z,15.27
2018-08-28T21:54:09.878Z,19.97
2018-08-28T21:56:38.010Z,13.93
2018-08-28T21:59:06.188Z,16.27
2018-08-28T22:01:34.396Z,17.87
2018-08-28T22:04:02.630Z,18.87
2018-08-28T22:06:36.057Z,17.40
2018-08-28T22:09:05.001Z,17.97
2018-08-28T22:11:33.410Z,19.27
2018-08-28T22:14:01.663Z,15.97
2018-08-28T22:16:29.788Z,21.17
2018-08-28T22:18:58.121Z,22.03
2018-08-28T22:21:26.318Z,21.23
2018-08-28T22:23:54.528Z,16.13
2018-08-28T22:26:22.664Z,17.77
2018-08-28T22:28:50.853Z,17.60
2018-08-28T22:31:19.027Z,19.23
2018-08-28T22:33:47.368Z,18.40
2018-08-28T22:36:15.575Z,16.23
2018-08-28T22:38:43.781Z,17.07
2018-08-28T22:41:11.787Z,17.57
2018-08-28T22:43:40.115Z,18.80
2018-08-28T22:46:08.252Z,19.33
2018-08-28T22:48:36.697Z,18.40
2018-08-28T22:51:05.082Z,17.00
2018-08-28T22:53:33.382Z,17.47
2018-08-28T22:56:01.538Z,19.73
2018-08-28T22:58:29.661Z,18.20
2018-08-28T23:00:57.772Z,20.47
2018-08-28T23:03:25.865Z,16.90
2018-08-28T23:05:53.937Z,16.07
2018-08-28T23:08:22.035Z,18.93
2018-08-28T23:10:50.258Z,14.43
2018-08-28T23:13:18.396Z,14.87
2018-08-28T23:15:46.569Z,15.90
2018-08-28T23:18:14.647Z,17.77
2018-08-28T23:20:42.934Z,16.57
2018-08-28T23:23:10.997Z,16.83
2018-08-28T23:25:39.157Z,15.03
2018-08-28T23:28:07.286Z,17.17
2018-08-28T23:30:35.422Z,14.87
2018-08-28T23:33:03.482Z,18.80
2018-08-28T23:35:31.566Z,17.70
2018-08-28T23:37:59.642Z,16.73
2018-08-28T23:40:27.686Z,15.90
2018-08-28T23:42:55.900Z,13.87
2018-08-28T23:45:24.097Z,13.63
2018-08-28T23:47:52.185Z,19.50
2018-08-28T23:50:20.474Z,15.87
2018-08-28T23:52:48.627Z,15.63
2018-08-28T23:55:16.677Z,15.70
2018-08-28T23:57:44.886Z,14.53
